createdAt,value
2022-09-13T00:01:05.113Z,9.13
2022-09-13T00:03:34.607Z,8.70
2022-09-13T00:06:10.003Z,8.70
2022-09-13T00:08:40.557Z,8.03
2022-09-13T00:11:15.737Z,8.90
2022-09-13T00:13:45.027Z,8.97
2022-09-13T00:16:16.101Z,9.50
2022-09-13T00:18:45.957Z,9.30
2022-09-13T00:21:18.030Z,8.67
2022-09-13T00:23:50.672Z,8.70
2022-09-13T00:26:21.791Z,9.33
2022-09-13T00:28:53.298Z,8.47
2022-09-13T00:31:25.198Z,8.03
2022-09-13T00:33:55.180Z,7.90
2022-09-13T00:36:24.832Z,8.40
2022-09-13T00:38:55.999Z,8.80
2022-09-13T00:41:25.592Z,9.30
2022-09-13T00:43:57.595Z,8.17
2022-09-13T00:46:34.586Z,8.20
2022-09-13T00:49:10.392Z,8.33
2022-09-13T00:51:40.706Z,8.43
2022-09-13T00:54:13.188Z,9.63
2022-09-13T00:56:47.539Z,8.70
2022-09-13T00:59:22.711Z,8.67
2022-09-13T01:01:56.661Z,9.30
2022-09-13T01:04:29.268Z,9.27
2022-09-13T01:07:04.226Z,9.20
2022-09-13T01:09:38.546Z,8.80
2022-09-13T01:12:15.134Z,8.90
2022-09-13T01:14:47.592Z,9.17
2022-09-13T01:17:17.329Z,9.13
2022-09-13T01:19:47.233Z,8.60
2022-09-13T01:22:45.581Z,8.37
2022-09-13T01:25:41.168Z,8.90
2022-09-13T01:28:49.661Z,8.67
2022-09-13T01:31:27.141Z,9.07
2022-09-13T01:34:08.817Z,10.30
2022-09-13T01:36:52.101Z,9.77
2022-09-13T01:39:35.141Z,9.57
2022-09-13T01:42:16.821Z,10.17
2022-09-13T01:45:01.741Z,9.30
2022-09-13T01:47:37.800Z,9.67
2022-09-13T01:50:19.252Z,9.97
2022-09-13T01:52:55.812Z,9.30
2022-09-13T01:55:34.847Z,10.27
2022-09-13T01:58:15.839Z,9.73
2022-09-13T02:00:51.648Z,11.07
2022-09-13T02:03:30.006Z,9.90
2022-09-13T02:06:03.731Z,11.43
2022-09-13T02:08:39.679Z,10.73
2022-09-13T02:11:12.679Z,11.23
2022-09-13T02:13:48.232Z,10.67
2022-09-13T02:16:24.358Z,11.10
2022-09-13T02:19:01.066Z,11.27
2022-09-13T02:21:34.846Z,10.57
2022-09-13T02:24:08.728Z,10.60
2022-09-13T02:26:42.519Z,10.30
2022-09-13T02:29:17.438Z,10.23
2022-09-13T02:31:50.935Z,10.10
2022-09-13T02:34:25.680Z,10.47
2022-09-13T02:36:58.686Z,10.13
2022-09-13T02:39:30.959Z,10.60
2022-09-13T02:42:12.342Z,10.37
2022-09-13T02:44:45.406Z,10.10
2022-09-13T02:47:24.806Z,10.53
2022-09-13T02:50:02.608Z,10.10
2022-09-13T02:52:44.567Z,10.97
2022-09-13T02:55:23.809Z,10.87
2022-09-13T02:58:01.959Z,10.37
2022-09-13T03:00:32.042Z,9.57
2022-09-13T03:03:05.874Z,10.27
2022-09-13T03:05:37.003Z,9.77
2022-09-13T03:08:07.634Z,10.00
2022-09-13T03:10:46.364Z,8.43
2022-09-13T03:13:39.213Z,8.93
2022-09-13T03:16:21.522Z,9.67
2022-09-13T03:19:01.653Z,9.73
2022-09-13T03:21:51.043Z,9.07
2022-09-13T03:24:25.883Z,9.50
2022-09-13T03:27:08.092Z,9.57
2022-09-13T03:29:45.453Z,8.80
2022-09-13T03:32:27.839Z,9.23
2022-09-13T03:35:06.166Z,8.80
2022-09-13T03:37:45.681Z,9.23
2022-09-13T03:40:17.610Z,9.63
2022-09-13T03:42:52.600Z,9.13
2022-09-13T03:45:29.315Z,9.20
2022-09-13T03:48:01.964Z,8.30
2022-09-13T03:50:32.038Z,9.10
2022-09-13T03:53:06.682Z,9.77
2022-09-13T03:55:40.554Z,8.87
2022-09-13T03:58:13.036Z,9.83
2022-09-13T04:00:43.116Z,8.63
2022-09-13T04:03:13.162Z,8.53
2022-09-13T04:05:42.999Z,9.27
2022-09-13T04:08:14.235Z,9.63
2022-09-13T04:10:43.492Z,9.03
2022-09-13T04:13:13.005Z,10.73
2022-09-13T04:15:42.513Z,10.50
2022-09-13T04:18:12.712Z,9.83
2022-09-13T04:20:42.169Z,9.87
2022-09-13T04:23:13.088Z,9.10
2022-09-13T04:25:42.443Z,9.27
2022-09-13T04:28:11.903Z,9.30
2022-09-13T04:30:42.797Z,9.20
2022-09-13T04:33:12.324Z,9.67
2022-09-13T04:35:41.823Z,9.00
2022-09-13T04:38:12.809Z,9.73
2022-09-13T04:40:42.283Z,9.30
2022-09-13T04:43:11.703Z,9.63
2022-09-13T04:45:41.193Z,9.00
2022-09-13T04:48:11.452Z,9.07
2022-09-13T04:50:40.988Z,11.37
2022-09-13T04:53:12.809Z,9.73
2022-09-13T04:55:42.787Z,9.60
2022-09-13T04:58:13.168Z,8.33
2022-09-13T05:00:43.535Z,9.00
2022-09-13T05:03:14.046Z,24.57
2022-09-13T05:05:44.360Z,17.03
2022-09-13T05:08:16.689Z,8.88
2022-09-13T05:10:49.429Z,8.43
2022-09-13T05:13:19.959Z,8.50
2022-09-13T05:15:50.161Z,8.50
2022-09-13T05:18:20.389Z,8.68
2022-09-13T05:20:50.710Z,7.43
2022-09-13T05:23:22.710Z,6.85
2022-09-13T05:25:55.991Z,7.20
2022-09-13T05:28:27.109Z,6.70
2022-09-13T05:30:58.600Z,6.68
2022-09-13T05:33:29.821Z,6.50
2022-09-13T05:36:00.079Z,6.20
2022-09-13T05:38:31.830Z,6.13
2022-09-13T05:41:03.835Z,6.22
2022-09-13T05:43:35.755Z,6.38
2022-09-13T05:46:07.950Z,6.28
2022-09-13T05:48:38.864Z,6.57
2022-09-13T05:51:11.118Z,6.00
2022-09-13T05:53:44.951Z,6.95
2022-09-13T05:56:17.199Z,9.18
2022-09-13T05:58:49.364Z,6.57
2022-09-13T06:01:21.631Z,6.10
2022-09-13T06:03:52.006Z,6.47
2022-09-13T06:06:23.435Z,6.57
2022-09-13T06:08:57.035Z,6.07
2022-09-13T06:11:28.313Z,7.00
2022-09-13T06:13:58.475Z,6.95
2022-09-13T06:16:32.423Z,7.93
2022-09-13T06:19:02.728Z,8.50
2022-09-13T06:21:33.191Z,7.80
2022-09-13T06:24:05.739Z,8.13
2022-09-13T06:26:36.023Z,8.13
2022-09-13T06:29:06.142Z,8.20
2022-09-13T06:31:35.889Z,9.18
2022-09-13T06:34:05.966Z,9.02
2022-09-13T06:36:35.846Z,8.95
2022-09-13T06:39:08.455Z,8.82
2022-09-13T06:41:38.295Z,8.32
2022-09-13T06:44:08.085Z,8.63
2022-09-13T06:46:38.681Z,9.25
2022-09-13T06:49:09.858Z,8.50
2022-09-13T06:51:39.564Z,8.40
2022-09-13T06:54:11.285Z,8.02
2022-09-13T06:56:41.431Z,9.43
2022-09-13T06:59:12.430Z,8.85
2022-09-13T07:01:43.865Z,8.85
2022-09-13T07:04:15.030Z,8.80
2022-09-13T07:06:47.548Z,7.85
2022-09-13T07:09:21.810Z,7.80
2022-09-13T07:11:53.510Z,7.75
2022-09-13T07:14:25.090Z,8.10
2022-09-13T07:16:55.564Z,8.13
2022-09-13T07:19:26.990Z,9.00
2022-09-13T07:21:58.844Z,9.40
2022-09-13T07:24:30.281Z,8.40
2022-09-13T07:27:00.630Z,8.35
2022-09-13T07:29:30.360Z,7.68
2022-09-13T07:31:59.918Z,8.65
2022-09-13T07:34:29.869Z,8.50
2022-09-13T07:37:22.509Z,8.30
2022-09-13T07:39:53.669Z,8.05
2022-09-13T07:42:23.398Z,9.32
2022-09-13T07:44:52.892Z,9.52
2022-09-13T07:47:22.686Z,9.00
2022-09-13T07:49:52.071Z,9.35
2022-09-13T07:52:21.790Z,9.32
2022-09-13T07:54:53.168Z,8.77
2022-09-13T07:57:22.683Z,8.65
2022-09-13T07:59:52.527Z,8.45
2022-09-13T08:02:22.898Z,9.10
2022-09-13T08:04:52.839Z,9.00
2022-09-13T08:07:22.565Z,8.95
2022-09-13T08:09:56.669Z,8.93
2022-09-13T08:12:26.400Z,8.38
2022-09-13T08:14:56.444Z,8.52
2022-09-13T08:17:26.579Z,8.63
2022-09-13T08:19:56.518Z,9.35
2022-09-13T08:22:26.269Z,8.50
2022-09-13T08:24:57.989Z,8.60
2022-09-13T08:27:27.759Z,8.95
2022-09-13T08:29:57.509Z,9.80
2022-09-13T08:32:27.309Z,8.90
2022-09-13T08:34:57.558Z,9.52
2022-09-13T08:37:27.319Z,8.98
2022-09-13T08:39:58.554Z,8.75
2022-09-13T08:42:49.318Z,8.65
2022-09-13T08:45:19.320Z,8.57
2022-09-13T08:47:55.279Z,8.50
2022-09-13T08:50:29.550Z,8.10
2022-09-13T08:53:21.597Z,8.02
2022-09-13T08:55:59.789Z,7.80
2022-09-13T08:58:46.838Z,9.05
2022-09-13T09:01:25.305Z,8.98
2022-09-13T09:04:00.712Z,6.70
2022-09-13T09:06:30.841Z,6.78
2022-09-13T09:09:04.638Z,7.20
2022-09-13T09:11:40.429Z,7.00
2022-09-13T09:14:17.239Z,6.88
2022-09-13T09:16:53.079Z,6.30
2022-09-13T09:19:24.789Z,6.40
2022-09-13T09:21:54.558Z,5.80
2022-09-13T09:24:26.357Z,5.95
2022-09-13T09:26:59.559Z,4.30
2022-09-13T09:29:33.118Z,3.78
2022-09-13T09:32:17.278Z,2.90
2022-09-13T09:34:56.949Z,4.25
2022-09-13T09:37:27.642Z,7.93
2022-09-13T09:40:02.454Z,7.13
2022-09-13T09:42:42.390Z,7.07
2022-09-13T09:45:27.479Z,2.70
2022-09-13T09:48:02.040Z,2.60
2022-09-13T09:50:35.509Z,3.00
2022-09-13T09:53:10.250Z,3.65
2022-09-13T09:55:47.399Z,2.50
2022-09-13T09:58:19.351Z,3.25
2022-09-13T10:00:57.320Z,2.58
2022-09-13T10:03:29.608Z,3.35
2022-09-13T10:06:08.829Z,2.63
2022-09-13T10:08:40.589Z,2.97
2022-09-13T10:11:11.444Z,3.08
2022-09-13T10:14:00.551Z,3.90
2022-09-13T10:16:31.798Z,3.30
2022-09-13T10:19:27.164Z,3.28
2022-09-13T10:22:06.083Z,2.90
2022-09-13T10:24:35.799Z,3.22
2022-09-13T10:27:06.558Z,2.20
2022-09-13T10:29:38.685Z,3.40
2022-09-13T10:32:13.358Z,3.00
2022-09-13T10:34:47.269Z,3.20
2022-09-13T10:37:21.784Z,4.35
2022-09-13T10:39:57.884Z,2.83
2022-09-13T10:42:30.296Z,3.75
2022-09-13T10:45:03.389Z,2.60
2022-09-13T10:47:36.731Z,2.42
2022-09-13T10:50:21.761Z,3.30
2022-09-13T10:52:52.709Z,2.67
2022-09-13T10:55:37.478Z,3.10
2022-09-13T10:58:21.414Z,6.15
2022-09-13T11:01:29.477Z,3.80
2022-09-13T11:04:38.444Z,3.92
2022-09-13T11:07:29.519Z,3.08
2022-09-13T11:10:06.679Z,2.47
2022-09-13T11:12:44.842Z,2.38
2022-09-13T11:15:26.961Z,2.60
2022-09-13T11:18:18.431Z,3.03
2022-09-13T11:20:59.838Z,3.78
2022-09-13T11:23:55.350Z,4.13
2022-09-13T11:26:53.166Z,2.97
2022-09-13T11:29:39.319Z,2.33
2022-09-13T11:32:24.714Z,3.85
2022-09-13T11:35:14.118Z,3.03
2022-09-13T11:37:54.949Z,2.92
2022-09-13T11:40:50.682Z,5.05
2022-09-13T11:43:41.322Z,3.42
2022-09-13T11:46:21.829Z,2.58
2022-09-13T11:49:29.559Z,3.35
2022-09-13T11:52:09.878Z,3.10
2022-09-13T11:54:54.079Z,2.83
2022-09-13T11:57:28.789Z,2.53
2022-09-13T12:00:02.558Z,2.55
2022-09-13T12:02:42.260Z,3.25
2022-09-13T12:05:22.623Z,3.10
2022-09-13T12:07:56.951Z,2.70
2022-09-13T12:10:31.789Z,2.80
2022-09-13T12:13:04.311Z,3.20
2022-09-13T12:15:39.069Z,2.60
2022-09-13T12:18:15.351Z,2.88
2022-09-13T12:20:50.273Z,2.90
2022-09-13T12:23:26.816Z,2.85
2022-09-13T12:26:03.869Z,2.75
2022-09-13T12:28:39.078Z,2.95
2022-09-13T12:31:16.856Z,2.80
2022-09-13T12:33:47.951Z,3.03
2022-09-13T12:36:45.205Z,2.78
2022-09-13T12:39:29.679Z,2.90
2022-09-13T12:42:28.164Z,3.20
2022-09-13T12:45:12.591Z,3.13
2022-09-13T12:48:10.950Z,3.00
2022-09-13T12:51:03.842Z,3.03
2022-09-13T12:54:11.405Z,2.70
2022-09-13T12:57:11.810Z,3.22
2022-09-13T13:00:04.635Z,3.05
2022-09-13T13:02:38.005Z,3.20
2022-09-13T13:05:19.674Z,3.45
2022-09-13T13:07:55.282Z,3.20
2022-09-13T13:10:32.514Z,4.00
2022-09-13T13:13:20.845Z,3.67
2022-09-13T13:16:03.246Z,4.43
2022-09-13T13:18:44.883Z,3.95
2022-09-13T13:21:37.765Z,3.60
2022-09-13T13:24:47.485Z,3.92
2022-09-13T13:27:47.628Z,3.90
2022-09-13T13:30:44.610Z,3.83
2022-09-13T13:33:21.197Z,3.72
2022-09-13T13:35:52.903Z,3.70
2022-09-13T13:38:43.493Z,3.35
2022-09-13T13:41:45.352Z,3.95
2022-09-13T13:44:54.560Z,4.05
2022-09-13T13:47:54.558Z,3.90
2022-09-13T13:50:24.850Z,3.42
2022-09-13T13:53:03.610Z,4.13
2022-09-13T13:55:42.969Z,3.85
2022-09-13T13:58:33.288Z,4.28
2022-09-13T14:01:04.744Z,3.78
2022-09-13T14:03:51.773Z,4.20
2022-09-13T14:06:30.479Z,4.30
2022-09-13T14:09:32.940Z,4.13
2022-09-13T14:12:19.294Z,4.32
2022-09-13T14:15:08.945Z,4.35
2022-09-13T14:18:02.569Z,4.18
2022-09-13T14:20:33.523Z,4.35
2022-09-13T14:23:20.125Z,4.07
2022-09-13T14:25:56.645Z,4.38
2022-09-13T14:28:26.882Z,4.47
2022-09-13T14:30:58.842Z,4.10
2022-09-13T14:33:32.648Z,5.00
2022-09-13T14:36:06.846Z,4.20
2022-09-13T14:38:37.953Z,4.03
2022-09-13T14:41:19.249Z,4.05
2022-09-13T14:43:50.174Z,4.30
2022-09-13T14:46:26.304Z,4.85
2022-09-13T14:48:59.536Z,4.60
2022-09-13T14:51:35.534Z,4.70
2022-09-13T14:54:13.535Z,4.35
2022-09-13T14:56:47.775Z,4.32
2022-09-13T14:59:26.496Z,4.50
2022-09-13T15:02:02.705Z,4.45
2022-09-13T15:04:33.456Z,3.88
2022-09-13T15:07:20.574Z,4.20
2022-09-13T15:09:51.775Z,4.25
2022-09-13T15:12:27.614Z,4.05
2022-09-13T15:15:34.734Z,4.20
2022-09-13T15:18:06.435Z,4.43
2022-09-13T15:20:51.650Z,4.85
2022-09-13T15:23:26.095Z,4.47
2022-09-13T15:25:58.636Z,4.05
2022-09-13T15:28:31.114Z,3.92
2022-09-13T15:31:04.576Z,4.18
2022-09-13T15:33:36.085Z,4.40
2022-09-13T15:36:18.076Z,4.38
2022-09-13T15:39:17.451Z,4.13
2022-09-13T15:41:55.673Z,4.40
2022-09-13T15:44:26.714Z,4.43
2022-09-13T15:46:58.585Z,4.32
2022-09-13T15:49:30.285Z,4.28
2022-09-13T15:52:01.169Z,4.82
2022-09-13T15:54:35.044Z,4.50
2022-09-13T15:57:07.845Z,4.30
2022-09-13T15:59:37.645Z,4.60
2022-09-13T16:02:19.905Z,4.63
2022-09-13T16:04:49.892Z,4.60
2022-09-13T16:07:20.795Z,5.03
2022-09-13T16:09:52.046Z,4.85
2022-09-13T16:12:24.839Z,4.80
2022-09-13T16:14:55.236Z,5.00
2022-09-13T16:17:27.408Z,5.00
2022-09-13T16:19:57.715Z,5.13
2022-09-13T16:22:27.965Z,4.95
2022-09-13T16:24:59.247Z,5.28
2022-09-13T16:27:33.308Z,5.97
2022-09-13T16:30:03.769Z,5.38
2022-09-13T16:32:33.316Z,5.38
2022-09-13T16:35:03.084Z,5.53
2022-09-13T16:37:32.754Z,6.07
2022-09-13T16:40:04.964Z,5.38
2022-09-13T16:42:36.375Z,5.40
2022-09-13T16:45:07.503Z,5.65
2022-09-13T16:47:37.575Z,5.22
2022-09-13T16:50:09.494Z,5.68
2022-09-13T16:52:39.723Z,6.07
2022-09-13T16:55:11.395Z,6.40
2022-09-13T16:57:41.330Z,5.60
2022-09-13T17:00:13.203Z,6.07
2022-09-13T17:02:43.294Z,6.70
2022-09-13T17:05:13.219Z,6.38
2022-09-13T17:07:43.052Z,7.07
2022-09-13T17:10:14.984Z,6.50
2022-09-13T17:12:45.052Z,5.75
2022-09-13T17:15:15.141Z,6.40
2022-09-13T17:17:45.300Z,5.95
2022-09-13T17:20:17.461Z,5.95
2022-09-13T17:22:47.620Z,6.22
2022-09-13T17:25:21.452Z,6.25
2022-09-13T17:27:52.031Z,6.35
2022-09-13T17:30:22.264Z,6.55
2022-09-13T17:32:59.614Z,5.80
2022-09-13T17:35:36.342Z,6.43
2022-09-13T17:38:10.102Z,6.65
2022-09-13T17:40:43.785Z,7.03
2022-09-13T17:43:15.302Z,5.65
2022-09-13T17:45:46.759Z,6.68
2022-09-13T17:48:20.506Z,6.63
2022-09-13T17:50:51.223Z,6.30
2022-09-13T17:53:21.624Z,6.60
2022-09-13T17:55:55.465Z,6.32
2022-09-13T17:58:28.905Z,6.97
2022-09-13T18:01:06.455Z,6.93
2022-09-13T18:03:37.692Z,6.70
2022-09-13T18:06:12.892Z,7.13
2022-09-13T18:08:46.972Z,7.03
2022-09-13T18:11:22.653Z,6.43
2022-09-13T18:13:58.179Z,6.65
2022-09-13T18:16:31.903Z,6.35
2022-09-13T18:19:07.544Z,5.95
2022-09-13T18:21:39.132Z,7.22
2022-09-13T18:24:11.695Z,7.22
2022-09-13T18:26:47.054Z,7.35
2022-09-13T18:29:25.302Z,7.15
2022-09-13T18:31:56.370Z,7.80
2022-09-13T18:34:28.016Z,7.20
2022-09-13T18:37:02.416Z,7.03
2022-09-13T18:39:33.791Z,6.57
2022-09-13T18:42:08.772Z,7.03
2022-09-13T18:44:39.612Z,6.75
2022-09-13T18:47:13.933Z,6.43
2022-09-13T18:49:44.373Z,7.53
2022-09-13T18:52:15.299Z,11.50
2022-09-13T18:54:45.622Z,7.10
2022-09-13T18:57:18.092Z,6.78
2022-09-13T18:59:48.432Z,6.78
2022-09-13T19:02:19.104Z,6.03
2022-09-13T19:04:51.134Z,6.20
2022-09-13T19:07:23.222Z,6.18
2022-09-13T19:09:53.942Z,6.20
2022-09-13T19:12:26.821Z,6.30
2022-09-13T19:14:59.128Z,5.65
2022-09-13T19:17:30.012Z,5.93
2022-09-13T19:20:01.140Z,6.13
2022-09-13T19:22:31.940Z,5.97
2022-09-13T19:25:03.613Z,6.40
2022-09-13T19:27:36.813Z,5.73
2022-09-13T19:30:08.492Z,8.07
2022-09-13T19:32:39.135Z,6.60
2022-09-13T19:35:12.022Z,6.38
2022-09-13T19:37:43.213Z,6.20
2022-09-13T19:40:14.224Z,6.65
2022-09-13T19:42:46.660Z,5.78
2022-09-13T19:45:17.542Z,6.18
2022-09-13T19:50:40.412Z,6.38
2022-09-13T19:53:11.061Z,6.72
2022-09-13T19:55:47.621Z,6.35
2022-09-13T19:58:21.541Z,6.10
2022-09-13T20:00:52.108Z,6.75
2022-09-13T20:03:23.709Z,6.80
2022-09-13T20:05:54.428Z,6.95
2022-09-13T20:08:26.252Z,6.57
2022-09-13T20:10:58.093Z,6.45
2022-09-13T20:13:30.264Z,5.97
2022-09-13T20:16:01.353Z,6.53
2022-09-13T20:18:34.900Z,6.05
2022-09-13T20:21:06.820Z,6.65
2022-09-13T20:23:39.292Z,6.50
2022-09-13T20:26:16.812Z,7.05
2022-09-13T20:28:51.213Z,6.55
2022-09-13T20:31:23.333Z,6.95
2022-09-13T20:33:58.252Z,7.03
2022-09-13T20:36:32.900Z,6.82
2022-09-13T20:39:04.419Z,6.72
2022-09-13T20:41:35.539Z,6.90
2022-09-13T20:44:08.972Z,7.20
2022-09-13T20:46:41.132Z,6.85
2022-09-13T20:49:13.057Z,6.57
2022-09-13T20:51:44.502Z,6.95
2022-09-13T20:54:16.502Z,7.07
2022-09-13T20:56:47.691Z,7.37
2022-09-13T20:59:19.302Z,7.67
2022-09-13T21:01:49.470Z,6.70
2022-09-13T21:04:20.342Z,7.28
2022-09-13T21:07:10.960Z,7.20
2022-09-13T21:09:43.940Z,7.30
2022-09-13T21:12:16.260Z,6.97
2022-09-13T21:14:48.332Z,7.03
2022-09-13T21:17:18.652Z,7.30
2022-09-13T21:19:48.982Z,6.67
2022-09-13T21:22:18.981Z,7.10
2022-09-13T21:24:49.140Z,7.88
2022-09-13T21:27:19.284Z,7.35
2022-09-13T21:29:51.214Z,7.25
2022-09-13T21:32:21.612Z,7.53
2022-09-13T21:34:51.700Z,7.50
2022-09-13T21:37:21.619Z,7.60
2022-09-13T21:39:51.955Z,7.40
2022-09-13T21:42:22.332Z,7.70
2022-09-13T21:44:54.181Z,7.87
2022-09-13T21:47:24.252Z,7.53
2022-09-13T21:49:54.180Z,8.30
2022-09-13T21:52:24.260Z,8.05
2022-09-13T21:54:54.412Z,8.15
2022-09-13T21:57:24.500Z,8.20
2022-09-13T21:59:56.100Z,7.97
2022-09-13T22:02:26.402Z,8.63
2022-09-13T22:04:56.652Z,8.50
2022-09-13T22:07:26.656Z,9.00
2022-09-13T22:09:56.736Z,8.97
2022-09-13T22:12:26.819Z,9.00
2022-09-13T22:14:58.496Z,8.40
2022-09-13T22:17:28.577Z,8.20
2022-09-13T22:19:58.976Z,9.07
2022-09-13T22:22:29.609Z,8.37
2022-09-13T22:24:59.619Z,7.83
2022-09-13T22:27:29.937Z,8.93
2022-09-13T22:30:01.556Z,8.03
2022-09-13T22:32:31.532Z,9.20
2022-09-13T22:35:01.481Z,8.60
2022-09-13T22:37:31.370Z,8.97
2022-09-13T22:40:00.990Z,8.47
2022-09-13T22:42:30.761Z,9.00
2022-09-13T22:45:01.761Z,10.13
2022-09-13T22:47:31.282Z,9.57
2022-09-13T22:50:00.848Z,10.30
2022-09-13T22:52:30.654Z,10.87
2022-09-13T22:55:00.413Z,10.33
2022-09-13T22:57:29.926Z,10.03
2022-09-13T23:00:00.933Z,10.47
2022-09-13T23:02:30.494Z,10.13
2022-09-13T23:05:00.255Z,11.13
2022-09-13T23:07:29.847Z,11.73
2022-09-13T23:09:59.487Z,12.70
2022-09-13T23:12:31.374Z,11.90
2022-09-13T23:15:02.326Z,12.53
2022-09-13T23:17:32.087Z,12.60
2022-09-13T23:20:01.687Z,13.30
2022-09-13T23:22:31.215Z,12.07
2022-09-13T23:25:00.735Z,12.57
2022-09-13T23:27:31.496Z,12.60
2022-09-13T23:30:02.704Z,11.27
2022-09-13T23:32:32.224Z,10.77
2022-09-13T23:35:01.866Z,8.07
2022-09-13T23:37:31.617Z,6.90
2022-09-13T23:40:01.872Z,6.77
2022-09-13T23:42:32.071Z,6.03
2022-09-13T23:45:03.258Z,5.20
2022-09-13T23:47:33.075Z,4.90
2022-09-13T23:50:02.577Z,5.60
2022-09-13T23:52:32.130Z,4.93
2022-09-13T23:55:02.108Z,4.27
2022-09-13T23:57:31.701Z,3.10
